Time;durP1;ratioP1;P1;durP2;ratioP2;P2;SDS_P1;SDS_P2;PMS_P1;PMS_P2;Temp;Humidity;BMP_temperature;BMP_pressure;BME280_temperature;BME280_humidity;BME280_pressure;Samples;Min_cycle;Max_cycle;Signal;HPM_P1;HPM_P2
2023/04/14 05:03:22;;;;;;;12.02;4.43;;;3.70;99.90;;;;;;5056163;23;20063;-73
2023/04/14 05:05:48;;;;;;;14.55;5.10;;;3.70;99.90;;;;;;4952119;29;20031;-73
2023/04/14 05:08:14;;;;;;;12.95;4.68;;;3.70;99.90;;;;;;4945182;29;20091;-74
2023/04/14 05:10:40;;;;;;;15.00;6.13;;;3.70;99.90;;;;;;4957018;29;20042;-75
2023/04/14 05:13:06;;;;;;;12.63;6.38;;;3.70;99.90;;;;;;4945476;29;20219;-75
2023/04/14 05:15:32;;;;;;;14.63;5.85;;;3.80;99.90;;;;;;4958294;29;20090;-74
2023/04/14 05:17:58;;;;;;;12.23;5.78;;;3.80;99.90;;;;;;4962237;29;20394;-73
2023/04/14 05:20:24;;;;;;;13.35;6.45;;;3.90;99.90;;;;;;4945383;29;20052;-73
2023/04/14 05:22:49;;;;;;;10.15;5.45;;;4.00;99.90;;;;;;4945463;29;20036;-74
2023/04/14 05:25:16;;;;;;;10.50;4.80;;;4.10;99.90;;;;;;4942632;29;20073;-75
2023/04/14 05:27:42;;;;;;;9.35;4.68;;;4.20;99.90;;;;;;4945436;29;20042;-75
2023/04/14 05:30:08;;;;;;;12.18;5.72;;;4.30;99.90;;;;;;4945693;29;20031;-73
2023/04/14 05:32:35;;;;;;;16.52;5.88;;;4.40;99.90;;;;;;4945772;29;20086;-74
2023/04/14 05:35:01;;;;;;;12.77;6.60;;;4.40;99.90;;;;;;4946305;29;20047;-74
2023/04/14 05:37:28;;;;;;;13.65;5.68;;;4.50;99.90;;;;;;4964787;29;20039;-75
2023/04/14 05:39:55;;;;;;;13.00;5.53;;;4.60;99.90;;;;;;4942916;29;20030;-74
2023/04/14 05:42:21;;;;;;;14.43;5.63;;;4.70;99.90;;;;;;4964708;28;20042;-73
2023/04/14 05:44:47;;;;;;;10.75;5.90;;;4.70;99.90;;;;;;4957769;29;20042;-72
2023/04/14 05:47:13;;;;;;;12.07;6.43;;;4.80;99.90;;;;;;4964759;29;20051;-75
2023/04/14 05:49:48;;;;;;;14.57;6.32;;;4.90;99.90;;;;;;4941731;29;20023;-74
2023/04/14 05:52:23;;;;;;;13.63;6.50;;;5.10;99.90;;;;;;4947735;29;20094;-74
2023/04/14 05:54:49;;;;;;;12.98;6.78;;;5.10;99.90;;;;;;4942125;29;20075;-74
2023/04/14 05:57:16;;;;;;;13.50;7.03;;;5.20;99.90;;;;;;4964508;28;20023;-73
2023/04/14 05:59:42;;;;;;;14.77;7.07;;;5.30;99.90;;;;;;4941128;29;20180;-75
2023/04/14 06:02:08;;;;;;;13.85;6.43;;;5.40;99.90;;;;;;4946979;29;20152;-73
2023/04/14 06:04:34;;;;;;;10.23;6.53;;;5.50;99.90;;;;;;4883928;29;20326;-73
2023/04/14 06:07:03;;;;;;;16.92;8.75;;;5.60;99.90;;;;;;4906880;29;20061;-74
2023/04/14 06:09:31;;;;;;;12.43;6.53;;;5.60;99.90;;;;;;4899001;29;20041;-73
2023/04/14 06:11:57;;;;;;;11.40;5.60;;;5.70;99.90;;;;;;4890457;29;20017;-74
2023/04/14 06:14:24;;;;;;;12.40;6.22;;;5.70;99.90;;;;;;4907249;29;20035;-75
2023/04/14 06:16:50;;;;;;;12.77;6.30;;;5.90;99.90;;;;;;4885291;29;20025;-73
2023/04/14 06:19:17;;;;;;;12.40;5.78;;;5.90;99.90;;;;;;4907479;29;20017;-74
2023/04/14 06:21:44;;;;;;;10.85;5.72;;;5.90;99.90;;;;;;4906573;29;20033;-74
2023/04/14 06:24:19;;;;;;;9.88;4.90;;;5.90;99.90;;;;;;4888383;29;20021;-73
2023/04/14 06:26:47;;;;;;;10.75;5.15;;;5.90;99.90;;;;;;4885497;29;20123;-73
2023/04/14 06:29:34;;;;;;;9.32;4.10;;;5.90;99.90;;;;;;4906185;29;20310;-74
2023/04/14 06:32:00;;;;;;;10.40;4.68;;;5.80;99.90;;;;;;4886400;29;20092;-74
2023/04/14 06:34:26;;;;;;;8.65;5.05;;;5.80;99.90;;;;;;4907001;29;20325;-72
2023/04/14 06:37:03;;;;;;;12.57;5.88;;;5.90;99.90;;;;;;4917849;29;20031;-72
2023/04/14 06:39:29;;;;;;;14.32;5.20;;;5.90;99.90;;;;;;4947959;29;20112;-73
2023/04/14 06:41:55;;;;;;;12.65;5.82;;;5.90;99.90;;;;;;4946745;29;20024;-75
2023/04/14 06:44:22;;;;;;;15.65;5.72;;;5.90;99.90;;;;;;4947737;29;20035;-73
2023/04/14 06:46:52;;;;;;;10.45;4.95;;;5.80;99.90;;;;;;4926473;29;20290;-72
2023/04/14 06:49:20;;;;;;;14.32;4.75;;;5.90;99.90;;;;;;4931781;29;20122;-72
2023/04/14 06:51:46;;;;;;;10.80;4.53;;;6.00;99.90;;;;;;4925897;29;20237;-71
2023/04/14 06:54:11;;;;;;;11.80;4.22;;;6.00;99.90;;;;;;4947570;29;20027;-74
2023/04/14 06:56:37;;;;;;;9.23;4.40;;;6.20;99.90;;;;;;4948600;29;20035;-73
2023/04/14 06:59:06;;;;;;;8.95;4.53;;;6.30;99.90;;;;;;4948015;29;20031;-75
2023/04/14 07:01:35;;;;;;;9.30;4.03;;;6.60;99.90;;;;;;4923950;29;20032;-73
2023/04/14 07:04:02;;;;;;;12.18;3.97;;;6.80;99.90;;;;;;4931721;29;20046;-73
2023/04/14 07:06:28;;;;;;;10.73;4.05;;;7.00;99.90;;;;;;4920655;29;20036;-74
2023/04/14 07:08:55;;;;;;;10.50;3.95;;;7.10;99.90;;;;;;4927830;29;20036;-73
2023/04/14 07:11:24;;;;;;;8.35;3.78;;;7.30;99.90;;;;;;4928652;29;20040;-73
2023/04/14 07:13:50;;;;;;;7.82;3.65;;;7.50;99.90;;;;;;4922744;29;20051;-73
2023/04/14 07:16:15;;;;;;;7.72;3.15;;;7.60;99.90;;;;;;4929360;29;20305;-73
2023/04/14 07:18:41;;;;;;;9.32;3.53;;;7.70;99.90;;;;;;4929106;29;20035;-73
2023/04/14 07:21:07;;;;;;;9.82;3.20;;;7.90;99.90;;;;;;4924896;29;20063;-73
2023/04/14 07:23:33;;;;;;;7.68;2.97;;;8.00;99.90;;;;;;4920856;29;20024;-73
2023/04/14 07:25:59;;;;;;;9.60;3.53;;;8.10;99.90;;;;;;4928414;29;20044;-73
2023/04/14 07:28:27;;;;;;;10.52;3.70;;;8.20;99.90;;;;;;4912281;29;20170;-74
2023/04/14 07:30:53;;;;;;;11.48;3.30;;;8.40;99.90;;;;;;4923138;29;20039;-73
2023/04/14 07:33:25;;;;;;;8.07;3.38;;;8.50;99.90;;;;;;4911811;29;20032;-73
2023/04/14 07:35:52;;;;;;;7.10;3.38;;;8.50;99.90;;;;;;4923080;29;20049;-74
2023/04/14 07:38:19;;;;;;;7.55;3.28;;;8.60;99.90;;;;;;4912068;29;20043;-74
2023/04/14 07:40:45;;;;;;;9.95;2.78;;;8.60;99.90;;;;;;4922100;29;20028;-73
2023/04/14 07:43:12;;;;;;;8.05;3.40;;;8.70;99.90;;;;;;4911148;29;20024;-73
2023/04/14 07:45:38;;;;;;;9.55;4.20;;;8.80;99.90;;;;;;4905202;29;20028;-73
2023/04/14 07:48:04;;;;;;;11.85;3.55;;;8.90;99.90;;;;;;4910480;29;20103;-73
2023/04/14 07:50:30;;;;;;;9.50;4.07;;;9.00;99.90;;;;;;4928634;29;20063;-74
2023/04/14 07:53:06;;;;;;;10.45;3.65;;;9.20;99.90;;;;;;4928120;29;20028;-72
2023/04/14 07:55:40;;;;;;;9.20;3.33;;;9.30;99.90;;;;;;4904366;29;20043;-74
2023/04/14 07:58:06;;;;;;;10.18;3.83;;;9.30;99.90;;;;;;4926940;29;20321;-71
2023/04/14 08:00:36;;;;;;;12.30;3.20;;;9.50;99.90;;;;;;4920310;29;20103;-74
2023/04/14 08:03:03;;;;;;;9.48;3.22;;;9.50;99.90;;;;;;4906184;29;20095;-73
2023/04/14 08:05:29;;;;;;;12.13;3.90;;;9.60;99.90;;;;;;4904079;29;20268;-72
2023/04/14 08:08:04;;;;;;;7.20;3.25;;;9.80;99.90;;;;;;4931585;29;20024;-73
2023/04/14 08:10:40;;;;;;;7.40;3.17;;;9.90;99.90;;;;;;4928409;29;20036;-73
2023/04/14 08:13:06;;;;;;;13.00;3.10;;;9.90;99.90;;;;;;4926970;29;20068;-72
2023/04/14 08:15:44;;;;;;;10.13;2.85;;;10.00;99.90;;;;;;4925626;29;20051;-71
2023/04/14 08:18:14;;;;;;;7.53;2.70;;;10.00;99.90;;;;;;4925465;29;20044;-72
2023/04/14 08:20:40;;;;;;;8.60;3.33;;;9.90;99.90;;;;;;4916185;29;20040;-73
2023/04/14 08:23:10;;;;;;;11.13;2.90;;;9.90;99.90;;;;;;4926671;29;20028;-73
2023/04/14 08:25:37;;;;;;;9.82;2.78;;;10.00;99.90;;;;;;4920022;29;20222;-74
2023/04/14 08:28:06;;;;;;;6.43;2.95;;;10.10;99.90;;;;;;4926246;29;20020;-75
2023/04/14 08:30:31;;;;;;;8.60;2.75;;;10.30;99.90;;;;;;4919459;29;20028;-73
2023/04/14 08:32:59;;;;;;;8.52;2.90;;;10.10;99.90;;;;;;4927088;29;20048;-73
2023/04/14 08:35:25;;;;;;;8.18;2.65;;;10.20;99.90;;;;;;4927716;29;20040;-71
2023/04/14 08:37:52;;;;;;;5.80;2.55;;;10.20;99.90;;;;;;4922100;29;20028;-72
2023/04/14 08:40:26;;;;;;;7.05;2.47;;;10.30;99.90;;;;;;4910648;29;20103;-73
2023/04/14 08:42:52;;;;;;;6.57;1.92;;;10.60;99.90;;;;;;4905956;29;20040;-75
2023/04/14 08:45:29;;;;;;;8.05;2.13;;;10.70;99.20;;;;;;4926431;29;20039;-73
2023/04/14 08:48:00;;;;;;;8.68;2.08;;;10.60;98.90;;;;;;4906511;29;20024;-76
2023/04/14 08:50:37;;;;;;;6.20;1.60;;;10.70;99.20;;;;;;4911191;29;20318;-74
2023/04/14 08:53:07;;;;;;;5.22;1.42;;;10.90;98.50;;;;;;4910414;29;20352;-75
2023/04/14 08:55:37;;;;;;;6.38;1.55;;;11.10;98.10;;;;;;4927456;29;20056;-74
2023/04/14 08:58:36;;;;;;;5.22;1.00;;;11.10;97.00;;;;;;4927003;29;20040;-73
2023/04/14 09:01:03;;;;;;;9.23;1.13;;;11.20;96.90;;;;;;4903793;29;20044;-73
2023/04/14 09:03:30;;;;;;;7.03;1.40;;;11.30;95.80;;;;;;4927133;29;20063;-71
2023/04/14 09:05:59;;;;;;;6.85;1.20;;;11.30;94.90;;;;;;4926872;29;20370;-72
2023/04/14 09:08:26;;;;;;;5.80;1.45;;;11.30;94.70;;;;;;4926900;29;20024;-74
2023/04/14 09:10:53;;;;;;;5.72;1.70;;;11.30;94.80;;;;;;4927140;29;20218;-73
2023/04/14 09:13:21;;;;;;;4.82;1.00;;;11.50;94.50;;;;;;4927263;29;20051;-72
2023/04/14 09:15:48;;;;;;;5.75;1.30;;;11.60;94.10;;;;;;4920702;29;20036;-72
2023/04/14 09:18:15;;;;;;;5.13;1.17;;;11.60;93.90;;;;;;4926387;29;20048;-75
2023/04/14 09:20:42;;;;;;;6.20;1.45;;;11.80;93.50;;;;;;4927044;29;20035;-73
2023/04/14 09:23:09;;;;;;;3.60;1.00;;;12.00;94.00;;;;;;4922602;29;20046;-71
2023/04/14 09:25:42;;;;;;;4.55;1.10;;;12.20;92.30;;;;;;4902937;29;20343;-72
2023/04/14 09:28:07;;;;;;;5.47;1.10;;;12.20;90.90;;;;;;4926188;29;20142;-73
2023/04/14 09:30:34;;;;;;;7.75;1.42;;;12.30;91.30;;;;;;4927044;29;20047;-72
2023/04/14 09:33:05;;;;;;;8.40;1.35;;;12.30;91.10;;;;;;4905974;29;20295;-73
2023/04/14 09:35:47;;;;;;;3.55;1.00;;;12.30;90.90;;;;;;4926753;29;20044;-73
2023/04/14 09:38:14;;;;;;;6.63;1.50;;;12.20;90.20;;;;;;4926062;29;20044;-73
2023/04/14 09:40:44;;;;;;;6.35;1.75;;;12.20;90.70;;;;;;4926543;29;20075;-72
2023/04/14 09:43:26;;;;;;;5.40;1.20;;;12.10;90.90;;;;;;4926031;29;20117;-73
2023/04/14 09:45:53;;;;;;;7.00;1.35;;;12.00;90.80;;;;;;4905045;29;20031;-72
2023/04/14 09:48:19;;;;;;;4.97;1.40;;;12.10;91.00;;;;;;4926010;29;20031;-72
2023/04/14 09:50:59;;;;;;;4.88;1.20;;;12.20;90.90;;;;;;4919736;29;20075;-73
2023/04/14 09:53:34;;;;;;;6.35;1.88;;;12.40;90.40;;;;;;4926514;29;20044;-72
2023/04/14 09:56:05;;;;;;;7.55;1.50;;;12.60;89.20;;;;;;4925811;29;20036;-73
2023/04/14 09:58:40;;;;;;;5.13;1.40;;;12.80;89.50;;;;;;4917863;29;20040;-73
2023/04/14 10:01:17;;;;;;;6.05;1.20;;;13.00;90.30;;;;;;4924650;29;20075;-72
2023/04/14 10:03:45;;;;;;;5.20;1.70;;;13.20;89.20;;;;;;4906124;29;20100;-71
2023/04/14 10:06:16;;;;;;;5.50;0.93;;;13.40;89.10;;;;;;4891415;29;20036;-73
2023/04/14 10:08:52;;;;;;;7.82;1.55;;;13.30;88.60;;;;;;4909134;29;20103;-73
2023/04/14 10:11:24;;;;;;;5.75;1.73;;;13.20;89.10;;;;;;4908522;29;20051;-74
2023/04/14 10:13:55;;;;;;;5.22;1.70;;;13.40;90.20;;;;;;4926114;29;20046;-75
2023/04/14 10:16:22;;;;;;;6.40;1.27;;;13.80;90.20;;;;;;4925512;29;20039;-73
2023/04/14 10:18:49;;;;;;;6.45;1.23;;;14.00;89.50;;;;;;4909315;29;20242;-72
2023/04/14 10:21:16;;;;;;;6.80;1.40;;;14.30;85.30;;;;;;4925524;29;20070;-74
2023/04/14 10:23:43;;;;;;;7.55;1.30;;;14.50;85.10;;;;;;4926000;29;20326;-73
2023/04/14 10:26:11;;;;;;;7.05;1.48;;;14.60;83.60;;;;;;4925430;29;20114;-72
2023/04/14 10:28:41;;;;;;;4.10;1.50;;;14.50;84.10;;;;;;4925983;29;20026;-74
2023/04/14 10:31:38;;;;;;;8.85;1.67;;;14.40;84.20;;;;;;4908479;29;20311;-75
2023/04/14 10:34:17;;;;;;;6.90;1.60;;;14.50;85.10;;;;;;4892652;29;20028;-71
2023/04/14 10:36:43;;;;;;;7.45;1.38;;;14.60;84.70;;;;;;4909376;29;20043;-73
2023/04/14 10:39:23;;;;;;;6.60;1.48;;;14.50;83.70;;;;;;4893345;29;20341;-73
2023/04/14 10:41:54;;;;;;;7.85;1.40;;;14.50;85.40;;;;;;4894060;29;20028;-72
2023/04/14 10:44:25;;;;;;;7.82;1.98;;;14.60;84.00;;;;;;4925538;29;20040;-74
2023/04/14 10:47:22;;;;;;;6.90;1.50;;;14.50;85.80;;;;;;4925883;29;20040;-73
2023/04/14 10:49:54;;;;;;;6.43;1.48;;;14.40;83.20;;;;;;4926010;29;20314;-72
2023/04/14 10:52:21;;;;;;;6.07;1.38;;;14.50;83.40;;;;;;4925253;29;20028;-73
2023/04/14 10:55:06;;;;;;;6.78;1.50;;;14.50;83.40;;;;;;4909108;29;20058;-74
2023/04/14 10:57:45;;;;;;;5.45;1.95;;;14.70;83.10;;;;;;4913109;29;20036;-73
2023/04/14 11:00:23;;;;;;;7.20;1.20;;;14.80;82.80;;;;;;4908727;29;20035;-73
2023/04/14 11:02:56;;;;;;;;;;;14.90;78.40;;;;;;4917763;29;20152;-74
2023/04/14 11:05:50;;;;;;;4.28;0.90;;;14.90;80.20;;;;;;4924390;29;19915;-73
2023/04/14 11:08:32;;;;;;;4.38;1.10;;;15.30;77.00;;;;;;4925331;29;20051;-71
2023/04/14 11:11:08;;;;;;;5.05;1.20;;;15.50;75.10;;;;;;4925855;29;20258;-72
2023/04/14 11:13:34;;;;;;;7.45;1.27;;;15.90;74.30;;;;;;4925612;29;20106;-72
2023/04/14 11:16:05;;;;;;;4.65;1.08;;;16.10;74.10;;;;;;4925542;29;20044;-72
2023/04/14 11:18:44;;;;;;;4.30;1.23;;;16.70;70.80;;;;;;4909145;29;20028;-71
2023/04/14 11:21:13;;;;;;;5.85;1.20;;;17.40;70.10;;;;;;4908485;29;20024;-73
2023/04/14 11:23:42;;;;;;;5.43;1.25;;;17.90;70.10;;;;;;4927275;29;20036;-74
2023/04/14 11:26:10;;;;;;;5.90;1.02;;;18.50;69.20;;;;;;4926691;29;20047;-74
2023/04/14 11:28:45;;;;;;;4.80;1.00;;;19.30;70.20;;;;;;4929392;29;20063;-74
2023/04/14 11:31:18;;;;;;;5.13;1.00;;;20.50;65.10;;;;;;4927923;29;20048;-73
2023/04/14 11:33:48;;;;;;;4.13;1.20;;;21.40;63.00;;;;;;4929409;29;20020;-77
2023/04/14 11:36:14;;;;;;;3.55;1.35;;;21.90;61.00;;;;;;4928432;29;20059;-74
2023/04/14 11:38:46;;;;;;;4.05;1.10;;;22.30;57.40;;;;;;4927879;29;20024;-74
2023/04/14 11:41:19;;;;;;;2.70;0.88;;;22.40;57.20;;;;;;4911292;29;20035;-74
2023/04/14 11:43:45;;;;;;;4.07;0.80;;;21.30;55.70;;;;;;4911759;29;20214;-74
2023/04/14 11:46:15;;;;;;;5.78;1.20;;;19.90;58.10;;;;;;4927192;29;20106;-72
2023/04/14 11:48:43;;;;;;;3.83;0.90;;;18.80;59.30;;;;;;4927403;29;20052;-74
2023/04/14 11:51:09;;;;;;;4.00;0.80;;;18.50;59.60;;;;;;4928110;29;20075;-74
2023/04/14 11:53:53;;;;;;;4.55;1.02;;;18.70;59.30;;;;;;4928521;29;20024;-74
2023/04/14 11:56:20;;;;;;;6.30;1.02;;;18.40;59.10;;;;;;4927927;29;20259;-74
2023/04/14 11:58:46;;;;;;;4.60;1.00;;;18.30;59.00;;;;;;4927151;29;20221;-72
2023/04/14 12:01:22;;;;;;;4.13;0.90;;;19.80;59.00;;;;;;4927729;29;20306;-74
2023/04/14 12:03:52;;;;;;;4.32;0.90;;;21.80;58.00;;;;;;4911486;29;20194;-74
2023/04/14 12:06:18;;;;;;;2.50;0.80;;;23.70;53.40;;;;;;4911469;29;20075;-73
2023/04/14 12:08:51;;;;;;;4.57;0.88;;;24.50;51.00;;;;;;4927224;29;20051;-74
2023/04/14 12:11:19;;;;;;;3.88;0.95;;;24.30;50.10;;;;;;4927924;29;20039;-74
2023/04/14 12:13:46;;;;;;;3.50;0.80;;;25.20;50.30;;;;;;4928393;29;20039;-73
2023/04/14 12:19:02;;;;;;;3.95;1.00;;;24.70;52.20;;;;;;4928117;29;20222;-74
2023/04/14 12:21:28;;;;;;;4.40;1.10;;;25.30;50.10;;;;;;4910704;29;20029;-74
2023/04/14 12:23:54;;;;;;;3.30;0.68;;;25.90;49.50;;;;;;4927981;29;20210;-73
2023/04/14 12:26:25;;;;;;;3.60;0.77;;;26.90;48.70;;;;;;4911162;29;20032;-75
2023/04/14 12:28:57;;;;;;;2.50;0.80;;;27.50;47.00;;;;;;4911199;29;20027;-77
2023/04/14 12:31:30;;;;;;;3.10;0.80;;;28.30;47.40;;;;;;4927635;29;20042;-76
2023/04/14 12:34:03;;;;;;;3.65;0.70;;;28.50;45.80;;;;;;4926844;29;20028;-73
2023/04/14 12:40:09;;;;;;;3.85;0.80;;;29.50;44.40;;;;;;4927847;29;20102;-74
2023/04/14 12:42:47;;;;;;;2.53;0.80;;;29.70;43.70;;;;;;4910809;29;20031;-74
2023/04/14 12:45:23;;;;;;;2.90;0.60;;;29.50;43.30;;;;;;4926275;29;20385;-73
2023/04/14 12:47:53;;;;;;;4.97;1.05;;;29.70;42.80;;;;;;4928026;29;20075;-72
2023/04/14 12:50:29;;;;;;;3.25;0.85;;;29.10;43.00;;;;;;4932207;29;20040;-71
2023/04/14 12:53:24;;;;;;;2.08;0.60;;;29.80;43.50;;;;;;4931638;29;20051;-72
2023/04/14 12:56:12;;;;;;;3.25;1.00;;;30.50;42.50;;;;;;4915113;29;20040;-74
2023/04/14 12:58:46;;;;;;;3.55;0.90;;;31.00;41.00;;;;;;4913390;29;20043;-74
2023/04/14 13:01:17;;;;;;;2.85;0.93;;;31.20;40.50;;;;;;4910973;29;20028;-76
2023/04/14 13:04:09;;;;;;;3.67;0.75;;;32.10;41.40;;;;;;4910860;29;20032;-72
2023/04/14 13:06:36;;;;;;;2.90;0.68;;;32.00;40.20;;;;;;4872465;29;20048;-74
2023/04/14 13:09:30;;;;;;;3.88;0.80;;;32.10;40.70;;;;;;4875532;29;20039;-72
2023/04/14 13:12:08;;;;;;;4.20;1.02;;;32.50;39.70;;;;;;4918291;29;20048;-74
2023/04/14 13:14:34;;;;;;;2.60;0.88;;;32.50;40.40;;;;;;4927305;29;20040;-74
2023/04/14 13:17:00;;;;;;;2.80;0.77;;;32.50;40.60;;;;;;4927217;29;20050;-74
2023/04/14 13:19:29;;;;;;;3.35;0.75;;;33.00;40.70;;;;;;4926652;29;20079;-73
2023/04/14 13:22:04;;;;;;;3.70;0.85;;;33.50;39.00;;;;;;4911307;29;20068;-75
2023/04/14 13:24:31;;;;;;;2.42;0.88;;;33.00;38.90;;;;;;4925511;29;20318;-75
2023/04/14 13:27:00;;;;;;;3.80;1.03;;;33.00;38.70;;;;;;4910498;29;20079;-73
2023/04/14 13:29:31;;;;;;;3.75;0.95;;;33.70;39.90;;;;;;4926500;29;20856;-73
2023/04/14 13:32:10;;;;;;;3.55;0.73;;;34.50;37.80;;;;;;4910569;29;20107;-75
2023/04/14 13:34:40;;;;;;;3.22;0.90;;;34.70;37.60;;;;;;4910127;29;20028;-74
2023/04/14 13:37:06;;;;;;;3.85;0.80;;;34.10;38.40;;;;;;4926828;29;20104;-72
2023/04/14 13:39:44;;;;;;;3.67;0.90;;;33.80;39.30;;;;;;4926283;29;20226;-72
2023/04/14 13:42:10;;;;;;;2.05;0.60;;;33.50;37.90;;;;;;4926513;29;20043;-72
2023/04/14 13:44:36;;;;;;;2.90;0.75;;;33.30;37.30;;;;;;4925803;29;20240;-71
2023/04/14 13:47:04;;;;;;;2.83;0.70;;;33.30;38.70;;;;;;4925914;29;20342;-73
2023/04/14 13:49:37;;;;;;;2.45;0.65;;;34.00;37.10;;;;;;4926822;29;20044;-74
2023/04/14 13:52:07;;;;;;;2.00;0.73;;;34.70;37.10;;;;;;4927669;29;20059;-73
2023/04/14 13:54:34;;;;;;;2.38;0.52;;;35.50;36.90;;;;;;4925230;29;20028;-72
2023/04/14 13:57:03;;;;;;;2.72;0.70;;;35.40;35.20;;;;;;4910761;29;20076;-70
2023/04/14 13:59:29;;;;;;;3.33;0.63;;;33.90;35.50;;;;;;4925205;29;20024;-74
2023/04/14 14:02:00;;;;;;;3.88;0.90;;;31.80;38.10;;;;;;4924933;29;20382;-71
2023/04/14 14:04:26;;;;;;;2.83;0.63;;;31.90;38.80;;;;;;4926227;29;20321;-72
2023/04/14 14:06:52;;;;;;;2.60;0.77;;;33.00;36.30;;;;;;4926810;29;20103;-73
2023/04/14 14:09:18;;;;;;;3.17;1.02;;;33.40;39.80;;;;;;4926442;29;20036;-74
2023/04/14 14:11:45;;;;;;;4.03;1.20;;;34.90;36.20;;;;;;4909531;29;20237;-73
2023/04/14 14:14:14;;;;;;;2.95;0.80;;;34.80;35.70;;;;;;4924894;29;20072;-72
2023/04/14 14:16:44;;;;;;;2.95;0.63;;;34.40;35.70;;;;;;4909649;29;20328;-73
2023/04/14 14:19:12;;;;;;;2.83;0.73;;;34.30;36.30;;;;;;4926492;29;20085;-72
2023/04/14 14:21:40;;;;;;;2.38;0.75;;;34.50;36.80;;;;;;4909612;29;20095;-72
2023/04/14 14:24:06;;;;;;;;;;;33.30;35.30;;;;;;4910228;29;20108;-75
2023/04/14 14:26:31;;;;;;;2.55;0.70;;;34.10;39.40;;;;;;4924487;29;19934;-73
2023/04/14 14:28:58;;;;;;;1.88;0.47;;;35.60;37.50;;;;;;4926322;29;20040;-73
2023/04/14 14:31:27;;;;;;;3.17;0.60;;;36.70;34.60;;;;;;4908907;29;20020;-71
2023/04/14 14:33:53;;;;;;;2.55;0.68;;;36.10;36.20;;;;;;4909055;29;20202;-71
2023/04/14 14:36:19;;;;;;;2.75;0.80;;;35.70;38.00;;;;;;4925454;29;20039;-72
2023/04/14 14:38:45;;;;;;;3.05;0.90;;;35.80;34.20;;;;;;4909331;29;20251;-74
2023/04/14 14:41:16;;;;;;;2.80;0.57;;;35.30;34.10;;;;;;4925985;29;20032;-72
2023/04/14 14:43:45;;;;;;;3.58;0.70;;;33.30;35.70;;;;;;4926132;29;20036;-72
2023/04/14 14:46:14;;;;;;;2.90;0.55;;;33.60;35.10;;;;;;4924907;29;20103;-72
2023/04/14 14:48:40;;;;;;;2.90;0.70;;;34.20;34.80;;;;;;4924936;29;20032;-73
2023/04/14 14:51:06;;;;;;;2.20;0.50;;;34.40;34.70;;;;;;4924895;29;20028;-73
2023/04/14 14:53:32;;;;;;;2.70;0.70;;;34.90;34.40;;;;;;4925442;29;20039;-72
2023/04/14 14:55:57;;;;;;;2.10;0.55;;;34.90;33.40;;;;;;4925665;29;20047;-72
2023/04/14 14:58:23;;;;;;;1.65;0.55;;;35.00;34.60;;;;;;4929430;29;20048;-74
2023/04/14 15:00:55;;;;;;;2.95;0.60;;;34.50;33.60;;;;;;4928421;29;20028;-74
2023/04/14 15:03:24;;;;;;;1.98;0.50;;;33.10;34.40;;;;;;4928626;29;20337;-73
2023/04/14 15:05:52;;;;;;;2.15;0.60;;;30.80;35.60;;;;;;4929363;29;20043;-74
2023/04/14 15:08:19;;;;;;;4.78;0.73;;;31.00;35.00;;;;;;4912503;29;20039;-71
2023/04/14 15:10:45;;;;;;;3.88;1.00;;;30.70;35.60;;;;;;4912563;29;20329;-71
2023/04/14 15:13:11;;;;;;;3.75;1.10;;;31.60;36.40;;;;;;4896916;29;20163;-74
2023/04/14 15:15:37;;;;;;;3.28;0.90;;;30.20;35.30;;;;;;4911942;29;20039;-73
2023/04/14 15:18:04;;;;;;;4.40;0.75;;;27.90;36.60;;;;;;4912526;29;20024;-72
2023/04/14 15:20:33;;;;;;;2.58;0.50;;;26.30;37.70;;;;;;4912148;29;20028;-74
2023/04/14 15:22:59;;;;;;;3.47;0.80;;;24.60;38.80;;;;;;4929058;29;20027;-75
2023/04/14 15:25:24;;;;;;;4.57;0.70;;;23.30;43.20;;;;;;4928785;29;20214;-73
2023/04/14 15:27:50;;;;;;;4.47;1.15;;;22.40;40.70;;;;;;4928982;29;20060;-72
2023/04/14 15:30:16;;;;;;;3.05;0.75;;;21.50;42.50;;;;;;4928317;29;20091;-73
2023/04/14 15:32:45;;;;;;;2.30;0.70;;;21.10;43.80;;;;;;4912484;29;20301;-71
2023/04/14 15:35:20;;;;;;;5.40;0.75;;;21.30;42.70;;;;;;4912098;29;20036;-70
2023/04/14 15:37:49;;;;;;;3.58;0.93;;;23.00;41.10;;;;;;4928783;29;20103;-72
2023/04/14 15:40:21;;;;;;;4.05;0.63;;;23.10;44.00;;;;;;4928768;29;20092;-72
2023/04/14 15:42:46;;;;;;;2.97;0.73;;;22.60;41.60;;;;;;4929055;29;20027;-73
2023/04/14 15:45:13;;;;;;;3.00;0.65;;;22.20;42.50;;;;;;4928880;29;20047;-74
2023/04/14 15:47:39;;;;;;;2.72;0.95;;;22.00;44.60;;;;;;4911276;29;20230;-74
2023/04/14 15:50:06;;;;;;;3.45;0.73;;;21.40;43.80;;;;;;4928903;29;20062;-73
2023/04/14 15:52:35;;;;;;;3.47;0.70;;;20.80;43.70;;;;;;4928044;29;20260;-76
2023/04/14 15:55:08;;;;;;;2.72;0.60;;;20.40;44.70;;;;;;4911856;29;20043;-74
2023/04/14 15:57:35;;;;;;;3.63;1.45;;;20.20;46.30;;;;;;4911438;29;20373;-75
2023/04/14 16:00:07;;;;;;;5.82;1.52;;;20.00;46.60;;;;;;4912045;29;20058;-76
2023/04/14 16:02:40;;;;;;;3.22;0.50;;;20.20;46.30;;;;;;4918373;29;20055;-75
2023/04/14 16:05:08;;;;;;;2.20;0.52;;;20.70;47.10;;;;;;4927536;29;20039;-74
2023/04/14 16:07:34;;;;;;;2.22;0.70;;;23.10;45.40;;;;;;4911304;29;20080;-74
2023/04/14 16:10:00;;;;;;;4.13;0.73;;;25.20;39.40;;;;;;4927884;29;20044;-75
2023/04/14 16:12:26;;;;;;;2.72;1.02;;;25.50;38.60;;;;;;4926689;29;20107;-73
2023/04/14 16:14:53;;;;;;;2.97;0.60;;;26.40;39.00;;;;;;4928262;29;20044;-73
2023/04/14 16:17:25;;;;;;;4.15;0.85;;;27.60;38.70;;;;;;4926728;29;20344;-75
2023/04/14 16:19:51;;;;;;;4.15;0.73;;;29.10;37.40;;;;;;4928180;29;20313;-73
2023/04/14 16:22:28;;;;;;;1.92;0.57;;;30.50;36.60;;;;;;4928154;29;20039;-74
2023/04/14 16:24:54;;;;;;;3.83;0.70;;;31.20;35.30;;;;;;4928330;29;20036;-73
2023/04/14 16:27:23;;;;;;;4.32;1.20;;;31.30;36.50;;;;;;4927766;29;20096;-74
2023/04/14 16:29:50;;;;;;;2.60;0.60;;;30.70;35.20;;;;;;4911516;29;20040;-73
2023/04/14 16:32:16;;;;;;;2.92;0.75;;;30.30;36.10;;;;;;4928078;29;20322;-73
2023/04/14 16:34:45;;;;;;;3.17;0.65;;;30.30;35.80;;;;;;4910891;29;20032;-73
2023/04/14 16:37:14;;;;;;;2.70;0.73;;;30.20;36.00;;;;;;4928179;29;20020;-73
2023/04/14 16:39:40;;;;;;;2.08;0.60;;;30.60;35.90;;;;;;4926376;29;20418;-74
2023/04/14 16:42:12;;;;;;;2.50;1.00;;;31.60;37.00;;;;;;4928154;29;20321;-73
2023/04/14 16:44:37;;;;;;;3.05;0.70;;;32.00;36.50;;;;;;4927385;29;20051;-74
2023/04/14 16:47:09;;;;;;;2.13;0.60;;;31.60;34.20;;;;;;4926634;29;20028;-74
2023/04/14 16:49:36;;;;;;;3.20;0.60;;;31.50;34.40;;;;;;4927198;29;20040;-74
2023/04/14 16:52:05;;;;;;;2.83;1.10;;;30.90;34.60;;;;;;4911092;29;20024;-75
2023/04/14 16:54:37;;;;;;;3.97;0.80;;;30.40;34.20;;;;;;4927084;29;20381;-74
2023/04/14 16:57:09;;;;;;;4.25;1.00;;;29.90;35.20;;;;;;4927507;29;20055;-74
2023/04/14 16:59:38;;;;;;;1.92;0.60;;;29.80;36.70;;;;;;4926089;29;20047;-73
2023/04/14 17:02:07;;;;;;;1.63;0.50;;;29.80;36.80;;;;;;4910100;29;20115;-76
2023/04/14 17:04:36;;;;;;;2.17;0.70;;;29.30;37.20;;;;;;4927225;29;20042;-73
2023/04/14 17:07:05;;;;;;;2.08;0.55;;;28.30;35.90;;;;;;4927359;29;20064;-76
2023/04/14 17:09:31;;;;;;;3.90;1.60;;;27.00;37.60;;;;;;4927017;29;20032;-75
2023/04/14 17:12:00;;;;;;;3.33;1.00;;;25.80;39.10;;;;;;4910810;29;20202;-73
2023/04/14 17:14:26;;;;;;;3.05;0.70;;;24.40;38.90;;;;;;4910255;29;20079;-73
2023/04/14 17:16:52;;;;;;;3.38;0.80;;;23.40;39.80;;;;;;4926331;29;20036;-72
2023/04/14 17:19:18;;;;;;;2.28;0.68;;;21.90;40.50;;;;;;4927419;29;20028;-74
2023/04/14 17:21:48;;;;;;;3.78;0.82;;;21.00;42.90;;;;;;4909494;29;20028;-74
2023/04/14 17:24:17;;;;;;;4.75;1.10;;;20.30;47.00;;;;;;4917644;29;20028;-71
2023/04/14 17:26:49;;;;;;;2.58;0.80;;;19.70;44.30;;;;;;4917405;29;20066;-72
2023/04/14 17:29:21;;;;;;;4.95;0.90;;;18.90;45.00;;;;;;4938146;29;20043;-72
2023/04/14 17:31:48;;;;;;;2.90;0.90;;;18.50;46.70;;;;;;4930494;29;20040;-74
2023/04/14 17:34:18;;;;;;;2.80;0.88;;;18.20;47.20;;;;;;4910825;29;20107;-73
2023/04/14 17:36:45;;;;;;;4.90;1.00;;;18.00;48.20;;;;;;4925796;29;20211;-74
2023/04/14 17:39:15;;;;;;;2.85;0.95;;;17.80;49.20;;;;;;4910612;29;20032;-73
2023/04/14 17:41:44;;;;;;;2.53;0.70;;;17.70;52.50;;;;;;4909847;29;20032;-75
2023/04/14 17:44:13;;;;;;;3.28;0.90;;;17.50;52.40;;;;;;4910220;29;20439;-72
2023/04/14 17:46:40;;;;;;;3.40;1.00;;;17.40;52.50;;;;;;4926462;29;20032;-74
2023/04/14 17:49:06;;;;;;;3.30;1.08;;;17.30;51.70;;;;;;4910029;29;20222;-73
2023/04/14 17:51:35;;;;;;;4.45;1.00;;;17.20;53.20;;;;;;4926278;29;20040;-72
2023/04/14 17:54:04;;;;;;;;;;;17.10;50.40;;;;;;4927010;29;20036;-74
2023/04/14 17:56:31;;;;;;;3.22;1.13;;;16.70;51.10;;;;;;4924815;29;19911;-74
2023/04/14 17:58:58;;;;;;;4.35;1.10;;;16.40;52.40;;;;;;4909842;29;20072;-73
2023/04/14 18:01:27;;;;;;;3.50;0.95;;;16.20;55.20;;;;;;4909467;29;20382;-75
2023/04/14 18:03:57;;;;;;;3.80;1.30;;;16.00;53.20;;;;;;4911521;29;20051;-75
2023/04/14 18:06:26;;;;;;;4.32;1.27;;;15.80;54.80;;;;;;4891255;29;20110;-74
2023/04/14 18:08:54;;;;;;;4.22;1.38;;;15.70;54.60;;;;;;4890708;29;20032;-74